sensor_id;sensor_type;location;lat;lon;timestamp;P1;durP1;ratioP1;P2;durP2;ratioP2
69991;SDS011;57332;51.320;-0.580;2023-03-14T00:00:07;15.73;;;2.28;;
69991;SDS011;57332;51.320;-0.580;2023-03-14T00:02:34;10.73;;;1.67;;
69991;SDS011;57332;51.320;-0.580;2023-03-14T00:05:01;15.20;;;1.92;;
69991;SDS011;57332;51.320;-0.580;2023-03-14T00:07:34;11.60;;;1.95;;
69991;SDS011;57332;51.320;-0.580;2023-03-14T00:10:03;11.40;;;1.52;;
69991;SDS011;57332;51.320;-0.580;2023-03-14T00:12:31;12.38;;;1.95;;
69991;SDS011;57332;51.320;-0.580;2023-03-14T00:14:58;16.08;;;1.80;;
69991;SDS011;57332;51.320;-0.580;2023-03-14T00:17:26;15.95;;;2.17;;
69991;SDS011;57332;51.320;-0.580;2023-03-14T00:19:53;12.57;;;1.95;;
69991;SDS011;57332;51.320;-0.580;2023-03-14T00:22:20;11.00;;;2.03;;
69991;SDS011;57332;51.320;-0.580;2023-03-14T00:24:48;11.52;;;1.67;;
69991;SDS011;57332;51.320;-0.580;2023-03-14T00:27:15;15.30;;;2.33;;
69991;SDS011;57332;51.320;-0.580;2023-03-14T00:29:42;11.77;;;2.42;;
69991;SDS011;57332;51.320;-0.580;2023-03-14T00:32:09;10.68;;;1.60;;
69991;SDS011;57332;51.320;-0.580;2023-03-14T00:34:35;10.25;;;2.15;;
69991;SDS011;57332;51.320;-0.580;2023-03-14T00:37:02;12.13;;;1.65;;
69991;SDS011;57332;51.320;-0.580;2023-03-14T00:39:29;11.73;;;1.33;;
69991;SDS011;57332;51.320;-0.580;2023-03-14T00:41:56;18.05;;;2.33;;
69991;SDS011;57332;51.320;-0.580;2023-03-14T00:44:23;9.60;;;1.70;;
69991;SDS011;57332;51.320;-0.580;2023-03-14T00:46:50;10.80;;;1.67;;
69991;SDS011;57332;51.320;-0.580;2023-03-14T00:49:17;9.40;;;1.40;;
69991;SDS011;57332;51.320;-0.580;2023-03-14T00:51:43;8.52;;;1.40;;
69991;SDS011;57332;51.320;-0.580;2023-03-14T00:54:10;11.30;;;1.33;;
69991;SDS011;57332;51.320;-0.580;2023-03-14T00:56:37;8.15;;;1.40;;
69991;SDS011;57332;51.320;-0.580;2023-03-14T00:59:04;6.35;;;1.38;;
69991;SDS011;57332;51.320;-0.580;2023-03-14T01:01:31;6.97;;;1.42;;
69991;SDS011;57332;51.320;-0.580;2023-03-14T01:03:58;3.80;;;0.77;;
69991;SDS011;57332;51.320;-0.580;2023-03-14T01:06:25;1.00;;;0.38;;
69991;SDS011;57332;51.320;-0.580;2023-03-14T01:08:53;1.60;;;0.50;;
69991;SDS011;57332;51.320;-0.580;2023-03-14T01:11:21;0.98;;;0.30;;
69991;SDS011;57332;51.320;-0.580;2023-03-14T01:13:48;0.63;;;0.28;;
69991;SDS011;57332;51.320;-0.580;2023-03-14T01:16:16;1.33;;;0.20;;
69991;SDS011;57332;51.320;-0.580;2023-03-14T01:18:43;1.35;;;0.20;;
69991;SDS011;57332;51.320;-0.580;2023-03-14T01:21:12;2.58;;;0.38;;
69991;SDS011;57332;51.320;-0.580;2023-03-14T01:23:39;0.70;;;0.40;;
69991;SDS011;57332;51.320;-0.580;2023-03-14T01:26:09;0.85;;;0.30;;
69991;SDS011;57332;51.320;-0.580;2023-03-14T01:28:37;0.88;;;0.35;;
69991;SDS011;57332;51.320;-0.580;2023-03-14T01:31:08;0.98;;;0.35;;
69991;SDS011;57332;51.320;-0.580;2023-03-14T01:33:36;1.13;;;0.50;;
69991;SDS011;57332;51.320;-0.580;2023-03-14T01:36:03;1.70;;;0.40;;
69991;SDS011;57332;51.320;-0.580;2023-03-14T01:38:31;1.45;;;0.35;;
69991;SDS011;57332;51.320;-0.580;2023-03-14T01:40:58;1.35;;;0.60;;
69991;SDS011;57332;51.320;-0.580;2023-03-14T01:43:25;1.23;;;0.50;;
69991;SDS011;57332;51.320;-0.580;2023-03-14T01:46:06;1.13;;;0.47;;
69991;SDS011;57332;51.320;-0.580;2023-03-14T01:51:10;0.90;;;0.50;;
69991;SDS011;57332;51.320;-0.580;2023-03-14T01:53:38;1.15;;;0.57;;
69991;SDS011;57332;51.320;-0.580;2023-03-14T01:56:06;1.05;;;0.55;;
69991;SDS011;57332;51.320;-0.580;2023-03-14T01:58:33;1.42;;;0.60;;
69991;SDS011;57332;51.320;-0.580;2023-03-14T02:01:03;1.30;;;0.70;;
69991;SDS011;57332;51.320;-0.580;2023-03-14T02:03:30;0.85;;;0.57;;
69991;SDS011;57332;51.320;-0.580;2023-03-14T02:05:59;2.25;;;0.70;;
69991;SDS011;57332;51.320;-0.580;2023-03-14T02:08:30;0.70;;;0.60;;
69991;SDS011;57332;51.320;-0.580;2023-03-14T02:10:57;2.50;;;0.68;;
69991;SDS011;57332;51.320;-0.580;2023-03-14T02:13:24;2.28;;;0.80;;
69991;SDS011;57332;51.320;-0.580;2023-03-14T02:15:51;2.20;;;0.70;;
69991;SDS011;57332;51.320;-0.580;2023-03-14T02:18:18;1.48;;;0.70;;
69991;SDS011;57332;51.320;-0.580;2023-03-14T02:23:12;2.70;;;1.05;;
69991;SDS011;57332;51.320;-0.580;2023-03-14T02:25:51;1.60;;;0.63;;
69991;SDS011;57332;51.320;-0.580;2023-03-14T02:28:20;1.02;;;0.57;;
69991;SDS011;57332;51.320;-0.580;2023-03-14T02:30:47;4.25;;;0.70;;
69991;SDS011;57332;51.320;-0.580;2023-03-14T02:33:15;1.52;;;0.60;;
69991;SDS011;57332;51.320;-0.580;2023-03-14T02:36:19;0.98;;;0.50;;
69991;SDS011;57332;51.320;-0.580;2023-03-14T02:41:08;1.00;;;0.50;;
69991;SDS011;57332;51.320;-0.580;2023-03-14T02:43:35;0.95;;;0.55;;
69991;SDS011;57332;51.320;-0.580;2023-03-14T02:46:01;1.92;;;0.50;;
69991;SDS011;57332;51.320;-0.580;2023-03-14T02:48:34;3.10;;;0.80;;
69991;SDS011;57332;51.320;-0.580;2023-03-14T02:51:02;1.55;;;0.77;;
69991;SDS011;57332;51.320;-0.580;2023-03-14T02:53:33;1.80;;;0.65;;
69991;SDS011;57332;51.320;-0.580;2023-03-14T02:56:00;1.88;;;0.70;;
69991;SDS011;57332;51.320;-0.580;2023-03-14T02:58:27;1.05;;;0.50;;
69991;SDS011;57332;51.320;-0.580;2023-03-14T03:00:54;1.38;;;0.50;;
69991;SDS011;57332;51.320;-0.580;2023-03-14T03:03:22;0.45;;;0.45;;
69991;SDS011;57332;51.320;-0.580;2023-03-14T03:05:50;1.23;;;0.70;;
69991;SDS011;57332;51.320;-0.580;2023-03-14T03:08:18;0.57;;;0.40;;
69991;SDS011;57332;51.320;-0.580;2023-03-14T03:10:45;0.77;;;0.47;;
69991;SDS011;57332;51.320;-0.580;2023-03-14T03:13:12;1.15;;;0.65;;
69991;SDS011;57332;51.320;-0.580;2023-03-14T03:15:39;0.95;;;0.40;;
69991;SDS011;57332;51.320;-0.580;2023-03-14T03:18:07;2.58;;;0.60;;
69991;SDS011;57332;51.320;-0.580;2023-03-14T03:20:33;4.32;;;0.90;;
69991;SDS011;57332;51.320;-0.580;2023-03-14T03:23:00;3.25;;;0.60;;
69991;SDS011;57332;51.320;-0.580;2023-03-14T03:25:27;2.13;;;0.63;;
69991;SDS011;57332;51.320;-0.580;2023-03-14T03:27:54;4.72;;;0.98;;
69991;SDS011;57332;51.320;-0.580;2023-03-14T03:30:21;1.83;;;0.60;;
69991;SDS011;57332;51.320;-0.580;2023-03-14T03:32:48;3.30;;;0.70;;
69991;SDS011;57332;51.320;-0.580;2023-03-14T03:35:15;1.10;;;0.52;;
69991;SDS011;57332;51.320;-0.580;2023-03-14T03:37:42;2.08;;;0.60;;
69991;SDS011;57332;51.320;-0.580;2023-03-14T03:40:09;0.93;;;0.40;;
69991;SDS011;57332;51.320;-0.580;2023-03-14T03:42:36;2.28;;;0.60;;
69991;SDS011;57332;51.320;-0.580;2023-03-14T03:45:03;3.03;;;0.70;;
69991;SDS011;57332;51.320;-0.580;2023-03-14T03:47:31;3.10;;;0.75;;
69991;SDS011;57332;51.320;-0.580;2023-03-14T03:49:57;3.28;;;0.80;;
69991;SDS011;57332;51.320;-0.580;2023-03-14T03:52:24;2.83;;;0.70;;
69991;SDS011;57332;51.320;-0.580;2023-03-14T03:54:51;3.50;;;0.40;;
69991;SDS011;57332;51.320;-0.580;2023-03-14T03:57:18;3.33;;;0.70;;
69991;SDS011;57332;51.320;-0.580;2023-03-14T03:59:45;3.13;;;0.70;;
69991;SDS011;57332;51.320;-0.580;2023-03-14T04:02:12;1.92;;;0.77;;
69991;SDS011;57332;51.320;-0.580;2023-03-14T04:04:39;4.38;;;0.57;;
69991;SDS011;57332;51.320;-0.580;2023-03-14T04:07:06;2.85;;;0.63;;
69991;SDS011;57332;51.320;-0.580;2023-03-14T04:09:33;8.40;;;0.80;;
69991;SDS011;57332;51.320;-0.580;2023-03-14T04:12:00;2.90;;;0.63;;
69991;SDS011;57332;51.320;-0.580;2023-03-14T04:14:26;1.70;;;0.60;;
69991;SDS011;57332;51.320;-0.580;2023-03-14T04:16:53;0.88;;;0.50;;
69991;SDS011;57332;51.320;-0.580;2023-03-14T04:19:20;1.90;;;0.60;;
69991;SDS011;57332;51.320;-0.580;2023-03-14T04:21:47;4.03;;;1.20;;
69991;SDS011;57332;51.320;-0.580;2023-03-14T04:24:14;3.58;;;0.60;;
69991;SDS011;57332;51.320;-0.580;2023-03-14T04:26:41;2.70;;;0.50;;
69991;SDS011;57332;51.320;-0.580;2023-03-14T04:29:08;2.53;;;0.85;;
69991;SDS011;57332;51.320;-0.580;2023-03-14T04:31:38;1.27;;;0.38;;
69991;SDS011;57332;51.320;-0.580;2023-03-14T04:34:05;2.20;;;0.70;;
69991;SDS011;57332;51.320;-0.580;2023-03-14T04:36:32;2.80;;;0.73;;
69991;SDS011;57332;51.320;-0.580;2023-03-14T04:38:59;4.85;;;0.80;;
69991;SDS011;57332;51.320;-0.580;2023-03-14T04:41:25;1.42;;;0.60;;
69991;SDS011;57332;51.320;-0.580;2023-03-14T04:43:52;4.35;;;0.52;;
69991;SDS011;57332;51.320;-0.580;2023-03-14T04:46:19;3.88;;;0.80;;
69991;SDS011;57332;51.320;-0.580;2023-03-14T04:48:46;2.67;;;0.70;;
69991;SDS011;57332;51.320;-0.580;2023-03-14T04:51:13;1.55;;;0.45;;
69991;SDS011;57332;51.320;-0.580;2023-03-14T04:53:40;2.47;;;0.50;;
69991;SDS011;57332;51.320;-0.580;2023-03-14T04:56:07;4.30;;;0.52;;
69991;SDS011;57332;51.320;-0.580;2023-03-14T04:58:34;4.45;;;0.55;;
69991;SDS011;57332;51.320;-0.580;2023-03-14T05:01:02;2.50;;;0.80;;
69991;SDS011;57332;51.320;-0.580;2023-03-14T05:03:30;3.22;;;0.50;;
69991;SDS011;57332;51.320;-0.580;2023-03-14T05:05:57;2.28;;;0.50;;
69991;SDS011;57332;51.320;-0.580;2023-03-14T05:08:25;2.88;;;0.57;;
69991;SDS011;57332;51.320;-0.580;2023-03-14T05:10:53;2.35;;;0.70;;
69991;SDS011;57332;51.320;-0.580;2023-03-14T05:13:20;5.22;;;0.70;;
69991;SDS011;57332;51.320;-0.580;2023-03-14T05:15:47;2.95;;;0.90;;
69991;SDS011;57332;51.320;-0.580;2023-03-14T05:18:14;3.88;;;0.90;;
69991;SDS011;57332;51.320;-0.580;2023-03-14T05:20:41;3.60;;;0.73;;
69991;SDS011;57332;51.320;-0.580;2023-03-14T05:23:10;3.03;;;0.75;;
69991;SDS011;57332;51.320;-0.580;2023-03-14T05:25:37;3.38;;;0.70;;
69991;SDS011;57332;51.320;-0.580;2023-03-14T05:28:04;3.15;;;0.80;;
69991;SDS011;57332;51.320;-0.580;2023-03-14T05:30:31;4.68;;;0.60;;
69991;SDS011;57332;51.320;-0.580;2023-03-14T05:33:00;2.75;;;0.80;;
69991;SDS011;57332;51.320;-0.580;2023-03-14T05:35:27;6.72;;;1.23;;
69991;SDS011;57332;51.320;-0.580;2023-03-14T05:37:54;5.28;;;0.70;;
69991;SDS011;57332;51.320;-0.580;2023-03-14T05:40:20;4.82;;;0.73;;
69991;SDS011;57332;51.320;-0.580;2023-03-14T05:42:47;3.05;;;0.60;;
69991;SDS011;57332;51.320;-0.580;2023-03-14T05:45:14;2.80;;;0.57;;
69991;SDS011;57332;51.320;-0.580;2023-03-14T05:47:41;2.67;;;0.60;;
69991;SDS011;57332;51.320;-0.580;2023-03-14T05:50:08;4.32;;;0.77;;
69991;SDS011;57332;51.320;-0.580;2023-03-14T05:52:35;4.25;;;0.65;;
69991;SDS011;57332;51.320;-0.580;2023-03-14T05:55:02;5.50;;;0.95;;
69991;SDS011;57332;51.320;-0.580;2023-03-14T05:57:29;3.45;;;0.88;;
69991;SDS011;57332;51.320;-0.580;2023-03-14T05:59:55;5.82;;;0.70;;
69991;SDS011;57332;51.320;-0.580;2023-03-14T06:02:22;5.70;;;0.77;;
69991;SDS011;57332;51.320;-0.580;2023-03-14T06:04:49;2.55;;;0.40;;
69991;SDS011;57332;51.320;-0.580;2023-03-14T06:07:16;4.43;;;0.80;;
69991;SDS011;57332;51.320;-0.580;2023-03-14T06:09:43;6.00;;;1.20;;
69991;SDS011;57332;51.320;-0.580;2023-03-14T06:12:10;3.35;;;0.70;;
69991;SDS011;57332;51.320;-0.580;2023-03-14T06:14:37;3.05;;;0.47;;
69991;SDS011;57332;51.320;-0.580;2023-03-14T06:17:03;2.28;;;0.80;;
69991;SDS011;57332;51.320;-0.580;2023-03-14T06:19:30;3.97;;;0.90;;
69991;SDS011;57332;51.320;-0.580;2023-03-14T06:21:57;5.75;;;1.00;;
69991;SDS011;57332;51.320;-0.580;2023-03-14T06:24:24;4.45;;;0.68;;
69991;SDS011;57332;51.320;-0.580;2023-03-14T06:26:51;3.60;;;0.57;;
69991;SDS011;57332;51.320;-0.580;2023-03-14T06:29:18;4.40;;;0.80;;
69991;SDS011;57332;51.320;-0.580;2023-03-14T06:31:45;2.88;;;0.60;;
69991;SDS011;57332;51.320;-0.580;2023-03-14T06:34:11;3.42;;;0.60;;
69991;SDS011;57332;51.320;-0.580;2023-03-14T06:36:38;5.47;;;0.80;;
69991;SDS011;57332;51.320;-0.580;2023-03-14T06:39:05;2.72;;;0.93;;
69991;SDS011;57332;51.320;-0.580;2023-03-14T06:41:32;3.70;;;0.70;;
69991;SDS011;57332;51.320;-0.580;2023-03-14T06:43:59;3.25;;;0.70;;
69991;SDS011;57332;51.320;-0.580;2023-03-14T06:46:26;2.78;;;0.60;;
69991;SDS011;57332;51.320;-0.580;2023-03-14T06:48:53;4.05;;;0.47;;
69991;SDS011;57332;51.320;-0.580;2023-03-14T06:51:20;2.10;;;0.55;;
69991;SDS011;57332;51.320;-0.580;2023-03-14T06:53:47;5.07;;;0.80;;
69991;SDS011;57332;51.320;-0.580;2023-03-14T06:56:16;3.53;;;0.82;;
69991;SDS011;57332;51.320;-0.580;2023-03-14T06:58:43;5.63;;;0.80;;
69991;SDS011;57332;51.320;-0.580;2023-03-14T07:01:17;1.80;;;0.60;;
69991;SDS011;57332;51.320;-0.580;2023-03-14T07:03:46;1.23;;;0.35;;
69991;SDS011;57332;51.320;-0.580;2023-03-14T07:06:13;3.05;;;0.73;;
69991;SDS011;57332;51.320;-0.580;2023-03-14T07:08:40;2.42;;;0.73;;
69991;SDS011;57332;51.320;-0.580;2023-03-14T07:11:08;2.72;;;0.50;;
69991;SDS011;57332;51.320;-0.580;2023-03-14T07:13:38;3.85;;;1.00;;
69991;SDS011;57332;51.320;-0.580;2023-03-14T07:16:05;2.85;;;0.80;;
69991;SDS011;57332;51.320;-0.580;2023-03-14T07:18:32;1.95;;;0.65;;
69991;SDS011;57332;51.320;-0.580;2023-03-14T07:20:59;7.43;;;0.80;;
69991;SDS011;57332;51.320;-0.580;2023-03-14T07:23:26;3.53;;;0.70;;
69991;SDS011;57332;51.320;-0.580;2023-03-14T07:25:53;3.20;;;0.73;;
69991;SDS011;57332;51.320;-0.580;2023-03-14T07:28:20;3.20;;;0.82;;
69991;SDS011;57332;51.320;-0.580;2023-03-14T07:30:47;5.15;;;0.98;;
69991;SDS011;57332;51.320;-0.580;2023-03-14T07:33:14;3.80;;;0.55;;
69991;SDS011;57332;51.320;-0.580;2023-03-14T07:35:41;3.60;;;0.75;;
69991;SDS011;57332;51.320;-0.580;2023-03-14T07:38:08;2.90;;;0.80;;
69991;SDS011;57332;51.320;-0.580;2023-03-14T07:40:35;6.07;;;0.80;;
69991;SDS011;57332;51.320;-0.580;2023-03-14T07:43:01;4.35;;;0.85;;
69991;SDS011;57332;51.320;-0.580;2023-03-14T07:45:28;3.95;;;0.85;;
69991;SDS011;57332;51.320;-0.580;2023-03-14T07:47:55;7.97;;;0.90;;
69991;SDS011;57332;51.320;-0.580;2023-03-14T07:50:24;4.80;;;0.77;;
69991;SDS011;57332;51.320;-0.580;2023-03-14T07:52:51;2.72;;;0.65;;
69991;SDS011;57332;51.320;-0.580;2023-03-14T07:55:18;2.95;;;0.90;;
69991;SDS011;57332;51.320;-0.580;2023-03-14T07:57:45;2.55;;;0.88;;
69991;SDS011;57332;51.320;-0.580;2023-03-14T08:00:13;4.07;;;0.77;;
69991;SDS011;57332;51.320;-0.580;2023-03-14T08:02:41;3.47;;;0.75;;
69991;SDS011;57332;51.320;-0.580;2023-03-14T08:05:09;2.60;;;0.60;;
69991;SDS011;57332;51.320;-0.580;2023-03-14T08:07:36;4.50;;;0.70;;
69991;SDS011;57332;51.320;-0.580;2023-03-14T08:10:03;2.13;;;0.70;;
69991;SDS011;57332;51.320;-0.580;2023-03-14T08:12:30;4.05;;;0.82;;
69991;SDS011;57332;51.320;-0.580;2023-03-14T08:14:57;4.60;;;1.00;;
69991;SDS011;57332;51.320;-0.580;2023-03-14T08:17:26;3.40;;;0.73;;
69991;SDS011;57332;51.320;-0.580;2023-03-14T08:19:54;3.05;;;0.77;;
69991;SDS011;57332;51.320;-0.580;2023-03-14T08:22:21;3.67;;;0.73;;
69991;SDS011;57332;51.320;-0.580;2023-03-14T08:24:48;1.98;;;0.60;;
69991;SDS011;57332;51.320;-0.580;2023-03-14T08:27:15;3.83;;;0.70;;
69991;SDS011;57332;51.320;-0.580;2023-03-14T08:29:42;2.15;;;0.68;;
69991;SDS011;57332;51.320;-0.580;2023-03-14T08:32:08;3.88;;;0.60;;
69991;SDS011;57332;51.320;-0.580;2023-03-14T08:34:36;6.32;;;0.80;;
69991;SDS011;57332;51.320;-0.580;2023-03-14T08:37:04;3.20;;;0.63;;
69991;SDS011;57332;51.320;-0.580;2023-03-14T08:39:41;2.30;;;0.55;;
69991;SDS011;57332;51.320;-0.580;2023-03-14T08:42:08;2.25;;;0.70;;
69991;SDS011;57332;51.320;-0.580;2023-03-14T08:44:35;2.58;;;0.50;;
69991;SDS011;57332;51.320;-0.580;2023-03-14T08:47:02;1.70;;;0.60;;
69991;SDS011;57332;51.320;-0.580;2023-03-14T08:49:29;1.50;;;0.43;;
69991;SDS011;57332;51.320;-0.580;2023-03-14T08:51:56;3.40;;;0.52;;
69991;SDS011;57332;51.320;-0.580;2023-03-14T08:54:23;1.65;;;0.57;;
69991;SDS011;57332;51.320;-0.580;2023-03-14T08:56:49;3.80;;;0.80;;
69991;SDS011;57332;51.320;-0.580;2023-03-14T08:59:16;2.08;;;0.55;;
69991;SDS011;57332;51.320;-0.580;2023-03-14T09:01:44;1.52;;;0.50;;
69991;SDS011;57332;51.320;-0.580;2023-03-14T09:04:11;2.53;;;0.65;;
69991;SDS011;57332;51.320;-0.580;2023-03-14T09:06:38;2.88;;;0.50;;
69991;SDS011;57332;51.320;-0.580;2023-03-14T09:09:05;1.17;;;0.30;;
69991;SDS011;57332;51.320;-0.580;2023-03-14T09:11:32;0.47;;;0.40;;
69991;SDS011;57332;51.320;-0.580;2023-03-14T09:13:58;0.77;;;0.43;;
69991;SDS011;57332;51.320;-0.580;2023-03-14T09:16:25;0.47;;;0.32;;
69991;SDS011;57332;51.320;-0.580;2023-03-14T09:18:53;0.77;;;0.50;;
69991;SDS011;57332;51.320;-0.580;2023-03-14T09:21:26;1.65;;;0.47;;
69991;SDS011;57332;51.320;-0.580;2023-03-14T09:23:53;0.95;;;0.30;;
69991;SDS011;57332;51.320;-0.580;2023-03-14T09:26:20;1.05;;;0.40;;
69991;SDS011;57332;51.320;-0.580;2023-03-14T09:28:47;0.77;;;0.50;;
69991;SDS011;57332;51.320;-0.580;2023-03-14T09:31:15;1.52;;;0.40;;
69991;SDS011;57332;51.320;-0.580;2023-03-14T09:33:42;1.42;;;0.47;;
69991;SDS011;57332;51.320;-0.580;2023-03-14T09:36:09;1.45;;;0.40;;
69991;SDS011;57332;51.320;-0.580;2023-03-14T09:38:36;0.30;;;0.30;;
69991;SDS011;57332;51.320;-0.580;2023-03-14T09:41:09;1.17;;;0.52;;
69991;SDS011;57332;51.320;-0.580;2023-03-14T09:43:38;1.35;;;0.30;;
69991;SDS011;57332;51.320;-0.580;2023-03-14T09:46:07;0.50;;;0.40;;
69991;SDS011;57332;51.320;-0.580;2023-03-14T09:48:36;0.70;;;0.40;;
69991;SDS011;57332;51.320;-0.580;2023-03-14T09:51:04;1.27;;;0.50;;
69991;SDS011;57332;51.320;-0.580;2023-03-14T09:53:37;1.70;;;0.40;;
69991;SDS011;57332;51.320;-0.580;2023-03-14T09:56:13;2.50;;;0.70;;
69991;SDS011;57332;51.320;-0.580;2023-03-14T09:58:41;0.95;;;0.45;;
69991;SDS011;57332;51.320;-0.580;2023-03-14T10:01:09;1.90;;;0.80;;
69991;SDS011;57332;51.320;-0.580;2023-03-14T10:03:37;1.52;;;0.50;;
69991;SDS011;57332;51.320;-0.580;2023-03-14T10:06:09;1.50;;;0.60;;
69991;SDS011;57332;51.320;-0.580;2023-03-14T10:08:44;1.52;;;0.77;;
69991;SDS011;57332;51.320;-0.580;2023-03-14T10:11:13;3.38;;;0.73;;
69991;SDS011;57332;51.320;-0.580;2023-03-14T10:13:50;3.08;;;0.70;;
69991;SDS011;57332;51.320;-0.580;2023-03-14T10:16:28;2.17;;;0.77;;
69991;SDS011;57332;51.320;-0.580;2023-03-14T10:18:59;1.67;;;0.80;;
69991;SDS011;57332;51.320;-0.580;2023-03-14T10:21:28;2.38;;;0.57;;
69991;SDS011;57332;51.320;-0.580;2023-03-14T10:24:07;2.88;;;0.70;;
69991;SDS011;57332;51.320;-0.580;2023-03-14T10:26:34;4.10;;;0.82;;
69991;SDS011;57332;51.320;-0.580;2023-03-14T10:29:12;3.20;;;1.00;;
69991;SDS011;57332;51.320;-0.580;2023-03-14T10:32:27;3.05;;;0.95;;
69991;SDS011;57332;51.320;-0.580;2023-03-14T10:34:30;2.13;;;1.00;;
69991;SDS011;57332;51.320;-0.580;2023-03-14T10:36:58;2.47;;;0.80;;
69991;SDS011;57332;51.320;-0.580;2023-03-14T10:42:18;3.05;;;0.90;;
69991;SDS011;57332;51.320;-0.580;2023-03-14T10:44:47;3.97;;;0.82;;
69991;SDS011;57332;51.320;-0.580;2023-03-14T10:47:17;3.47;;;1.00;;
69991;SDS011;57332;51.320;-0.580;2023-03-14T10:49:45;3.42;;;0.82;;
69991;SDS011;57332;51.320;-0.580;2023-03-14T10:54:38;3.83;;;0.88;;
69991;SDS011;57332;51.320;-0.580;2023-03-14T10:57:05;3.83;;;0.85;;
69991;SDS011;57332;51.320;-0.580;2023-03-14T10:59:36;2.10;;;0.98;;
69991;SDS011;57332;51.320;-0.580;2023-03-14T11:05:26;4.18;;;1.15;;
69991;SDS011;57332;51.320;-0.580;2023-03-14T11:07:43;5.18;;;1.40;;
69991;SDS011;57332;51.320;-0.580;2023-03-14T11:13:21;2.33;;;0.80;;
69991;SDS011;57332;51.320;-0.580;2023-03-14T11:23:38;4.15;;;0.85;;
69991;SDS011;57332;51.320;-0.580;2023-03-14T11:29:19;4.25;;;0.80;;
69991;SDS011;57332;51.320;-0.580;2023-03-14T11:31:47;5.18;;;0.90;;
69991;SDS011;57332;51.320;-0.580;2023-03-14T11:36:44;2.65;;;0.60;;
69991;SDS011;57332;51.320;-0.580;2023-03-14T11:39:17;3.50;;;0.80;;
69991;SDS011;57332;51.320;-0.580;2023-03-14T11:41:45;6.00;;;0.90;;
69991;SDS011;57332;51.320;-0.580;2023-03-14T11:44:17;2.92;;;0.75;;
69991;SDS011;57332;51.320;-0.580;2023-03-14T11:47:09;3.30;;;1.23;;
69991;SDS011;57332;51.320;-0.580;2023-03-14T11:49:47;2.85;;;0.90;;
69991;SDS011;57332;51.320;-0.580;2023-03-14T11:54:52;3.75;;;0.90;;
69991;SDS011;57332;51.320;-0.580;2023-03-14T11:57:20;4.55;;;0.85;;
69991;SDS011;57332;51.320;-0.580;2023-03-14T11:59:52;1.83;;;1.02;;
69991;SDS011;57332;51.320;-0.580;2023-03-14T12:02:22;3.72;;;1.00;;
69991;SDS011;57332;51.320;-0.580;2023-03-14T12:05:19;4.22;;;0.95;;
69991;SDS011;57332;51.320;-0.580;2023-03-14T12:10:18;4.13;;;0.90;;
69991;SDS011;57332;51.320;-0.580;2023-03-14T12:12:44;2.20;;;0.70;;
69991;SDS011;57332;51.320;-0.580;2023-03-14T12:15:18;3.95;;;1.20;;
69991;SDS011;57332;51.320;-0.580;2023-03-14T12:17:46;4.55;;;0.80;;
69991;SDS011;57332;51.320;-0.580;2023-03-14T12:20:20;2.83;;;0.80;;
69991;SDS011;57332;51.320;-0.580;2023-03-14T12:22:48;2.15;;;0.63;;
69991;SDS011;57332;51.320;-0.580;2023-03-14T12:25:18;4.32;;;0.85;;
69991;SDS011;57332;51.320;-0.580;2023-03-14T12:27:48;2.53;;;0.70;;
69991;SDS011;57332;51.320;-0.580;2023-03-14T12:30:17;3.42;;;0.70;;
69991;SDS011;57332;51.320;-0.580;2023-03-14T12:33:10;3.10;;;0.90;;
69991;SDS011;57332;51.320;-0.580;2023-03-14T12:40:50;2.22;;;0.60;;
69991;SDS011;57332;51.320;-0.580;2023-03-14T12:43:29;4.65;;;0.68;;
69991;SDS011;57332;51.320;-0.580;2023-03-14T12:48:55;1.63;;;0.52;;
69991;SDS011;57332;51.320;-0.580;2023-03-14T13:01:25;3.00;;;0.60;;
69991;SDS011;57332;51.320;-0.580;2023-03-14T13:04:02;2.63;;;0.70;;
69991;SDS011;57332;51.320;-0.580;2023-03-14T13:08:57;2.78;;;0.70;;
69991;SDS011;57332;51.320;-0.580;2023-03-14T13:11:24;1.10;;;0.50;;
69991;SDS011;57332;51.320;-0.580;2023-03-14T13:13:59;2.88;;;0.60;;
69991;SDS011;57332;51.320;-0.580;2023-03-14T13:16:26;0.70;;;0.40;;
69991;SDS011;57332;51.320;-0.580;2023-03-14T13:19:03;1.95;;;0.50;;
69991;SDS011;57332;51.320;-0.580;2023-03-14T13:21:36;2.25;;;0.60;;
69991;SDS011;57332;51.320;-0.580;2023-03-14T13:24:05;2.90;;;0.50;;
69991;SDS011;57332;51.320;-0.580;2023-03-14T13:26:36;2.90;;;0.60;;
69991;SDS011;57332;51.320;-0.580;2023-03-14T13:29:17;2.65;;;0.50;;
69991;SDS011;57332;51.320;-0.580;2023-03-14T13:31:47;2.78;;;0.30;;
69991;SDS011;57332;51.320;-0.580;2023-03-14T13:34:14;2.97;;;0.50;;
69991;SDS011;57332;51.320;-0.580;2023-03-14T13:36:41;1.70;;;0.40;;
69991;SDS011;57332;51.320;-0.580;2023-03-14T13:39:16;2.47;;;0.63;;
69991;SDS011;57332;51.320;-0.580;2023-03-14T13:41:48;4.80;;;0.70;;
69991;SDS011;57332;51.320;-0.580;2023-03-14T13:44:16;1.88;;;0.63;;
69991;SDS011;57332;51.320;-0.580;2023-03-14T13:46:43;2.13;;;0.68;;
69991;SDS011;57332;51.320;-0.580;2023-03-14T13:49:11;3.10;;;0.60;;
69991;SDS011;57332;51.320;-0.580;2023-03-14T13:51:39;1.42;;;0.60;;
69991;SDS011;57332;51.320;-0.580;2023-03-14T13:54:13;1.38;;;0.47;;
69991;SDS011;57332;51.320;-0.580;2023-03-14T13:56:40;1.30;;;0.43;;
69991;SDS011;57332;51.320;-0.580;2023-03-14T14:02:13;1.33;;;0.43;;
69991;SDS011;57332;51.320;-0.580;2023-03-14T14:04:44;1.23;;;0.40;;
69991;SDS011;57332;51.320;-0.580;2023-03-14T14:07:13;1.80;;;0.50;;
69991;SDS011;57332;51.320;-0.580;2023-03-14T14:12:20;1.90;;;0.52;;
69991;SDS011;57332;51.320;-0.580;2023-03-14T14:20:14;1.52;;;0.45;;
69991;SDS011;57332;51.320;-0.580;2023-03-14T14:22:44;3.03;;;0.60;;
69991;SDS011;57332;51.320;-0.580;2023-03-14T14:25:14;1.27;;;0.60;;
69991;SDS011;57332;51.320;-0.580;2023-03-14T14:27:42;2.35;;;0.65;;
69991;SDS011;57332;51.320;-0.580;2023-03-14T14:32:49;1.50;;;0.35;;
69991;SDS011;57332;51.320;-0.580;2023-03-14T14:35:24;2.67;;;0.60;;
69991;SDS011;57332;51.320;-0.580;2023-03-14T14:37:52;1.95;;;0.57;;
69991;SDS011;57332;51.320;-0.580;2023-03-14T14:40:20;2.90;;;0.50;;
69991;SDS011;57332;51.320;-0.580;2023-03-14T14:42:47;1.63;;;0.50;;
69991;SDS011;57332;51.320;-0.580;2023-03-14T14:45:16;2.28;;;0.63;;
69991;SDS011;57332;51.320;-0.580;2023-03-14T14:50:34;1.50;;;0.60;;
69991;SDS011;57332;51.320;-0.580;2023-03-14T14:53:20;2.90;;;0.50;;
69991;SDS011;57332;51.320;-0.580;2023-03-14T14:55:49;2.38;;;0.70;;
69991;SDS011;57332;51.320;-0.580;2023-03-14T14:58:29;3.17;;;0.43;;
69991;SDS011;57332;51.320;-0.580;2023-03-14T15:01:03;1.77;;;0.60;;
69991;SDS011;57332;51.320;-0.580;2023-03-14T15:03:32;1.40;;;0.50;;
69991;SDS011;57332;51.320;-0.580;2023-03-14T15:06:00;2.83;;;0.73;;
69991;SDS011;57332;51.320;-0.580;2023-03-14T15:08:27;1.65;;;0.60;;
69991;SDS011;57332;51.320;-0.580;2023-03-14T15:10:55;1.35;;;0.40;;
69991;SDS011;57332;51.320;-0.580;2023-03-14T15:13:22;2.08;;;0.80;;
69991;SDS011;57332;51.320;-0.580;2023-03-14T15:15:50;2.47;;;0.68;;
69991;SDS011;57332;51.320;-0.580;2023-03-14T15:18:23;1.02;;;0.50;;
69991;SDS011;57332;51.320;-0.580;2023-03-14T15:20:51;1.77;;;0.43;;
69991;SDS011;57332;51.320;-0.580;2023-03-14T15:23:18;1.65;;;0.55;;
69991;SDS011;57332;51.320;-0.580;2023-03-14T15:25:46;1.38;;;0.63;;
69991;SDS011;57332;51.320;-0.580;2023-03-14T15:28:25;1.65;;;0.57;;
69991;SDS011;57332;51.320;-0.580;2023-03-14T15:30:53;1.55;;;0.60;;
69991;SDS011;57332;51.320;-0.580;2023-03-14T15:33:20;1.33;;;0.50;;
69991;SDS011;57332;51.320;-0.580;2023-03-14T15:35:47;2.25;;;0.70;;
69991;SDS011;57332;51.320;-0.580;2023-03-14T15:38:15;1.40;;;0.52;;
69991;SDS011;57332;51.320;-0.580;2023-03-14T15:40:43;1.80;;;0.60;;
69991;SDS011;57332;51.320;-0.580;2023-03-14T15:43:10;1.67;;;0.70;;
69991;SDS011;57332;51.320;-0.580;2023-03-14T15:45:36;1.25;;;0.60;;
69991;SDS011;57332;51.320;-0.580;2023-03-14T15:48:04;1.02;;;0.63;;
69991;SDS011;57332;51.320;-0.580;2023-03-14T15:50:31;1.60;;;0.60;;
69991;SDS011;57332;51.320;-0.580;2023-03-14T15:52:57;1.88;;;0.70;;
69991;SDS011;57332;51.320;-0.580;2023-03-14T15:55:24;1.42;;;0.60;;